Bettendorf, Iowa
Current Conditions -  °F | °C
As of 3:52 AM on Sunday 21 Dec 2014 (Local Time) from KMLI Reporting Station
Haze Haze  
Wind Chill: 35°   Ceiling: 3500
Heat Index: 35°   Visibility: 6mi
Dew Point: 32°   Wind: 3mph
Humidity: 89%   Direction: 160°SSE
Pressure: 30.15"   Gusts: NA
Location:  41.53°N, 90.49°W
Report Text: KMLI 210952Z 16003KT 6SM BR OVC035 02/00 A3015 RMK AO2 SLP216 T00170000
Loading
Personal Weather Stations






























Interactive Weather Map New forecast layout! Learn more

10-Day Weather Forecast

Advertisements
Track Severe Weather on mobile